sensor_id;sensor_type;location;lat;lon;timestamp;temperature;humidity
32524;DHT22;18965;52.242;20.886;2023-06-14T00:01:38;14.50;82.20
32524;DHT22;18965;52.242;20.886;2023-06-14T00:04:04;14.50;82.30
32524;DHT22;18965;52.242;20.886;2023-06-14T00:06:34;14.50;82.40
32524;DHT22;18965;52.242;20.886;2023-06-14T00:09:00;14.50;82.50
32524;DHT22;18965;52.242;20.886;2023-06-14T00:11:26;14.50;82.50
32524;DHT22;18965;52.242;20.886;2023-06-14T00:13:52;14.50;82.60
32524;DHT22;18965;52.242;20.886;2023-06-14T00:16:18;14.50;82.70
32524;DHT22;18965;52.242;20.886;2023-06-14T00:18:45;14.50;82.60
32524;DHT22;18965;52.242;20.886;2023-06-14T00:21:11;14.50;82.70
32524;DHT22;18965;52.242;20.886;2023-06-14T00:23:37;14.50;82.80
32524;DHT22;18965;52.242;20.886;2023-06-14T00:26:03;14.50;82.80
32524;DHT22;18965;52.242;20.886;2023-06-14T00:28:29;14.50;82.90
32524;DHT22;18965;52.242;20.886;2023-06-14T00:30:55;14.40;82.80
32524;DHT22;18965;52.242;20.886;2023-06-14T00:33:20;14.50;82.90
32524;DHT22;18965;52.242;20.886;2023-06-14T00:35:46;14.50;82.80
32524;DHT22;18965;52.242;20.886;2023-06-14T00:38:12;14.50;82.90
32524;DHT22;18965;52.242;20.886;2023-06-14T00:40:38;14.50;82.80
32524;DHT22;18965;52.242;20.886;2023-06-14T00:43:04;14.50;82.90
32524;DHT22;18965;52.242;20.886;2023-06-14T00:45:29;14.50;82.90
32524;DHT22;18965;52.242;20.886;2023-06-14T00:47:57;14.50;82.90
32524;DHT22;18965;52.242;20.886;2023-06-14T00:50:23;14.50;83.00
32524;DHT22;18965;52.242;20.886;2023-06-14T00:52:49;14.50;82.90
32524;DHT22;18965;52.242;20.886;2023-06-14T00:55:16;14.50;83.00
32524;DHT22;18965;52.242;20.886;2023-06-14T00:57:42;14.50;83.00
32524;DHT22;18965;52.242;20.886;2023-06-14T01:00:08;14.50;83.10
32524;DHT22;18965;52.242;20.886;2023-06-14T01:02:38;14.50;83.10
32524;DHT22;18965;52.242;20.886;2023-06-14T01:05:05;14.50;83.20
32524;DHT22;18965;52.242;20.886;2023-06-14T01:13:02;14.50;83.20
32524;DHT22;18965;52.242;20.886;2023-06-14T01:15:31;14.50;83.30
32524;DHT22;18965;52.242;20.886;2023-06-14T01:17:57;14.50;83.20
32524;DHT22;18965;52.242;20.886;2023-06-14T01:20:37;14.50;83.20
32524;DHT22;18965;52.242;20.886;2023-06-14T01:23:03;14.60;83.30
32524;DHT22;18965;52.242;20.886;2023-06-14T01:25:29;14.50;83.40
32524;DHT22;18965;52.242;20.886;2023-06-14T01:30:23;14.50;83.30
32524;DHT22;18965;52.242;20.886;2023-06-14T01:32:51;14.50;83.40
32524;DHT22;18965;52.242;20.886;2023-06-14T01:35:18;14.50;83.30
32524;DHT22;18965;52.242;20.886;2023-06-14T01:37:44;14.60;83.30
32524;DHT22;18965;52.242;20.886;2023-06-14T01:40:12;14.60;83.50
32524;DHT22;18965;52.242;20.886;2023-06-14T01:42:38;14.60;83.50
32524;DHT22;18965;52.242;20.886;2023-06-14T01:45:06;14.60;83.40
32524;DHT22;18965;52.242;20.886;2023-06-14T01:47:33;14.60;83.30
32524;DHT22;18965;52.242;20.886;2023-06-14T01:49:59;14.60;83.20
32524;DHT22;18965;52.242;20.886;2023-06-14T01:52:25;14.60;83.30
32524;DHT22;18965;52.242;20.886;2023-06-14T01:54:51;14.60;83.30
32524;DHT22;18965;52.242;20.886;2023-06-14T01:57:17;14.70;83.40
32524;DHT22;18965;52.242;20.886;2023-06-14T01:59:42;14.70;83.30
32524;DHT22;18965;52.242;20.886;2023-06-14T02:02:08;14.70;83.30
32524;DHT22;18965;52.242;20.886;2023-06-14T02:04:34;14.70;83.20
32524;DHT22;18965;52.242;20.886;2023-06-14T02:07:00;14.70;83.20
32524;DHT22;18965;52.242;20.886;2023-06-14T02:09:26;14.70;83.20
32524;DHT22;18965;52.242;20.886;2023-06-14T02:11:51;14.70;83.20
32524;DHT22;18965;52.242;20.886;2023-06-14T02:14:17;14.70;83.20
32524;DHT22;18965;52.242;20.886;2023-06-14T02:16:43;14.70;83.20
32524;DHT22;18965;52.242;20.886;2023-06-14T02:19:18;14.70;83.20
32524;DHT22;18965;52.242;20.886;2023-06-14T02:21:44;14.70;83.30
32524;DHT22;18965;52.242;20.886;2023-06-14T02:24:10;14.80;83.30
32524;DHT22;18965;52.242;20.886;2023-06-14T02:26:36;14.80;83.30
32524;DHT22;18965;52.242;20.886;2023-06-14T02:29:04;14.70;83.10
32524;DHT22;18965;52.242;20.886;2023-06-14T02:31:31;14.80;83.30
32524;DHT22;18965;52.242;20.886;2023-06-14T02:33:57;14.70;83.10
32524;DHT22;18965;52.242;20.886;2023-06-14T02:36:23;14.80;83.10
32524;DHT22;18965;52.242;20.886;2023-06-14T02:38:49;14.80;83.10
32524;DHT22;18965;52.242;20.886;2023-06-14T02:41:15;14.80;83.10
32524;DHT22;18965;52.242;20.886;2023-06-14T02:43:41;14.80;83.10
32524;DHT22;18965;52.242;20.886;2023-06-14T02:46:07;14.80;83.10
32524;DHT22;18965;52.242;20.886;2023-06-14T02:48:32;14.80;83.10
32524;DHT22;18965;52.242;20.886;2023-06-14T02:50:58;14.80;83.10
32524;DHT22;18965;52.242;20.886;2023-06-14T02:53:24;14.80;83.10
32524;DHT22;18965;52.242;20.886;2023-06-14T02:55:50;14.80;83.10
32524;DHT22;18965;52.242;20.886;2023-06-14T02:58:15;14.80;83.10
32524;DHT22;18965;52.242;20.886;2023-06-14T03:00:42;14.80;83.20
32524;DHT22;18965;52.242;20.886;2023-06-14T03:03:08;14.80;83.20
32524;DHT22;18965;52.242;20.886;2023-06-14T03:05:45;14.90;83.30
32524;DHT22;18965;52.242;20.886;2023-06-14T03:08:17;14.90;83.40
32524;DHT22;18965;52.242;20.886;2023-06-14T03:10:48;14.90;83.40
32524;DHT22;18965;52.242;20.886;2023-06-14T03:13:15;14.90;83.40
32524;DHT22;18965;52.242;20.886;2023-06-14T03:15:44;14.90;83.40
32524;DHT22;18965;52.242;20.886;2023-06-14T03:18:10;15.00;83.40
32524;DHT22;18965;52.242;20.886;2023-06-14T03:20:37;15.00;83.30
32524;DHT22;18965;52.242;20.886;2023-06-14T03:23:04;15.00;83.30
32524;DHT22;18965;52.242;20.886;2023-06-14T03:25:30;15.00;83.20
32524;DHT22;18965;52.242;20.886;2023-06-14T03:27:57;15.00;83.20
32524;DHT22;18965;52.242;20.886;2023-06-14T03:30:23;15.00;83.20
32524;DHT22;18965;52.242;20.886;2023-06-14T03:32:49;15.00;83.10
32524;DHT22;18965;52.242;20.886;2023-06-14T03:35:17;15.00;83.90
32524;DHT22;18965;52.242;20.886;2023-06-14T03:37:44;15.00;83.10
32524;DHT22;18965;52.242;20.886;2023-06-14T03:40:11;15.00;83.20
32524;DHT22;18965;52.242;20.886;2023-06-14T03:42:37;15.00;83.30
32524;DHT22;18965;52.242;20.886;2023-06-14T03:45:03;14.90;83.20
32524;DHT22;18965;52.242;20.886;2023-06-14T03:47:29;14.90;83.30
32524;DHT22;18965;52.242;20.886;2023-06-14T03:49:55;14.90;83.30
32524;DHT22;18965;52.242;20.886;2023-06-14T03:52:20;14.90;83.50
32524;DHT22;18965;52.242;20.886;2023-06-14T03:54:47;14.90;83.20
32524;DHT22;18965;52.242;20.886;2023-06-14T03:57:13;14.90;83.30
32524;DHT22;18965;52.242;20.886;2023-06-14T03:59:39;14.90;83.40
32524;DHT22;18965;52.242;20.886;2023-06-14T04:02:05;15.00;83.30
32524;DHT22;18965;52.242;20.886;2023-06-14T04:04:30;15.00;83.30
32524;DHT22;18965;52.242;20.886;2023-06-14T04:06:57;15.10;83.40
32524;DHT22;18965;52.242;20.886;2023-06-14T04:09:24;15.10;83.40
32524;DHT22;18965;52.242;20.886;2023-06-14T04:11:51;15.10;83.30
32524;DHT22;18965;52.242;20.886;2023-06-14T04:14:19;15.10;83.20
32524;DHT22;18965;52.242;20.886;2023-06-14T04:16:46;15.20;83.30
32524;DHT22;18965;52.242;20.886;2023-06-14T04:19:11;15.20;83.20
32524;DHT22;18965;52.242;20.886;2023-06-14T04:21:37;15.20;83.20
32524;DHT22;18965;52.242;20.886;2023-06-14T04:24:03;15.30;83.20
32524;DHT22;18965;52.242;20.886;2023-06-14T04:26:29;15.30;83.20
32524;DHT22;18965;52.242;20.886;2023-06-14T04:28:55;15.30;83.10
32524;DHT22;18965;52.242;20.886;2023-06-14T04:31:23;15.40;83.10
32524;DHT22;18965;52.242;20.886;2023-06-14T04:33:51;15.40;83.00
32524;DHT22;18965;52.242;20.886;2023-06-14T04:36:20;15.40;83.00
32524;DHT22;18965;52.242;20.886;2023-06-14T04:38:46;15.50;83.10
32524;DHT22;18965;52.242;20.886;2023-06-14T04:41:12;15.60;83.10
32524;DHT22;18965;52.242;20.886;2023-06-14T04:43:38;15.60;83.10
32524;DHT22;18965;52.242;20.886;2023-06-14T04:46:07;15.60;83.00
32524;DHT22;18965;52.242;20.886;2023-06-14T04:48:37;15.70;83.10
32524;DHT22;18965;52.242;20.886;2023-06-14T04:51:03;15.70;83.00
32524;DHT22;18965;52.242;20.886;2023-06-14T04:53:29;15.80;83.00
32524;DHT22;18965;52.242;20.886;2023-06-14T04:55:56;15.90;82.90
32524;DHT22;18965;52.242;20.886;2023-06-14T04:58:21;15.90;82.90
32524;DHT22;18965;52.242;20.886;2023-06-14T05:00:47;16.00;82.90
32524;DHT22;18965;52.242;20.886;2023-06-14T05:03:13;16.00;82.80
32524;DHT22;18965;52.242;20.886;2023-06-14T05:05:40;16.10;82.70
32524;DHT22;18965;52.242;20.886;2023-06-14T05:08:06;16.10;82.50
32524;DHT22;18965;52.242;20.886;2023-06-14T05:10:32;16.10;82.20
32524;DHT22;18965;52.242;20.886;2023-06-14T05:13:00;16.20;82.10
32524;DHT22;18965;52.242;20.886;2023-06-14T05:15:26;16.20;82.00
32524;DHT22;18965;52.242;20.886;2023-06-14T05:17:53;16.20;82.00
32524;DHT22;18965;52.242;20.886;2023-06-14T05:20:24;16.20;81.90
32524;DHT22;18965;52.242;20.886;2023-06-14T05:22:51;16.30;82.00
32524;DHT22;18965;52.242;20.886;2023-06-14T05:25:19;16.30;82.00
32524;DHT22;18965;52.242;20.886;2023-06-14T05:27:45;16.40;82.00
32524;DHT22;18965;52.242;20.886;2023-06-14T05:30:12;16.40;82.00
32524;DHT22;18965;52.242;20.886;2023-06-14T05:32:37;16.40;82.00
32524;DHT22;18965;52.242;20.886;2023-06-14T05:35:03;16.40;81.90
32524;DHT22;18965;52.242;20.886;2023-06-14T05:37:29;16.40;81.80
32524;DHT22;18965;52.242;20.886;2023-06-14T05:39:56;16.40;81.70
32524;DHT22;18965;52.242;20.886;2023-06-14T05:42:22;16.40;81.60
32524;DHT22;18965;52.242;20.886;2023-06-14T05:44:47;16.40;81.50
32524;DHT22;18965;52.242;20.886;2023-06-14T05:47:13;16.40;81.50
32524;DHT22;18965;52.242;20.886;2023-06-14T05:49:39;16.40;81.50
32524;DHT22;18965;52.242;20.886;2023-06-14T05:52:05;16.40;81.60
32524;DHT22;18965;52.242;20.886;2023-06-14T05:54:31;16.50;81.70
32524;DHT22;18965;52.242;20.886;2023-06-14T05:56:57;16.50;81.50
32524;DHT22;18965;52.242;20.886;2023-06-14T05:59:27;16.60;81.50
32524;DHT22;18965;52.242;20.886;2023-06-14T06:01:53;16.60;81.40
32524;DHT22;18965;52.242;20.886;2023-06-14T06:04:18;16.60;81.30
32524;DHT22;18965;52.242;20.886;2023-06-14T06:06:45;16.60;81.30
32524;DHT22;18965;52.242;20.886;2023-06-14T06:09:12;16.60;81.20
32524;DHT22;18965;52.242;20.886;2023-06-14T06:11:39;16.70;81.10
32524;DHT22;18965;52.242;20.886;2023-06-14T06:14:05;16.70;80.90
32524;DHT22;18965;52.242;20.886;2023-06-14T06:16:31;16.80;80.80
32524;DHT22;18965;52.242;20.886;2023-06-14T06:18:57;16.90;80.70
32524;DHT22;18965;52.242;20.886;2023-06-14T06:21:22;17.00;80.70
32524;DHT22;18965;52.242;20.886;2023-06-14T06:23:48;17.00;80.40
32524;DHT22;18965;52.242;20.886;2023-06-14T06:26:14;17.10;80.00
32524;DHT22;18965;52.242;20.886;2023-06-14T06:28:40;17.20;79.80
32524;DHT22;18965;52.242;20.886;2023-06-14T06:31:05;17.20;79.80
32524;DHT22;18965;52.242;20.886;2023-06-14T06:33:31;17.20;79.50
32524;DHT22;18965;52.242;20.886;2023-06-14T06:35:57;17.30;79.50
32524;DHT22;18965;52.242;20.886;2023-06-14T06:38:23;17.40;79.00
32524;DHT22;18965;52.242;20.886;2023-06-14T06:40:48;17.40;78.80
32524;DHT22;18965;52.242;20.886;2023-06-14T06:43:14;17.40;78.60
32524;DHT22;18965;52.242;20.886;2023-06-14T06:45:42;17.40;78.50
32524;DHT22;18965;52.242;20.886;2023-06-14T06:48:08;17.40;78.40
32524;DHT22;18965;52.242;20.886;2023-06-14T06:50:36;17.50;78.30
32524;DHT22;18965;52.242;20.886;2023-06-14T06:53:02;17.50;78.30
32524;DHT22;18965;52.242;20.886;2023-06-14T06:55:28;17.70;78.20
32524;DHT22;18965;52.242;20.886;2023-06-14T06:57:53;17.80;78.50
32524;DHT22;18965;52.242;20.886;2023-06-14T07:00:20;18.00;77.80
32524;DHT22;18965;52.242;20.886;2023-06-14T07:02:46;18.20;76.90
32524;DHT22;18965;52.242;20.886;2023-06-14T07:05:12;18.20;76.00
32524;DHT22;18965;52.242;20.886;2023-06-14T07:07:37;18.30;76.00
32524;DHT22;18965;52.242;20.886;2023-06-14T07:10:04;18.30;76.00
32524;DHT22;18965;52.242;20.886;2023-06-14T07:12:33;18.20;75.60
32524;DHT22;18965;52.242;20.886;2023-06-14T07:15:01;18.20;75.20
32524;DHT22;18965;52.242;20.886;2023-06-14T07:17:27;18.20;75.10
32524;DHT22;18965;52.242;20.886;2023-06-14T07:19:53;18.00;74.70
32524;DHT22;18965;52.242;20.886;2023-06-14T07:22:19;18.00;74.90
32524;DHT22;18965;52.242;20.886;2023-06-14T07:24:45;17.90;75.00
32524;DHT22;18965;52.242;20.886;2023-06-14T07:27:11;17.90;75.40
32524;DHT22;18965;52.242;20.886;2023-06-14T07:29:38;18.00;75.80
32524;DHT22;18965;52.242;20.886;2023-06-14T07:32:04;18.00;75.50
32524;DHT22;18965;52.242;20.886;2023-06-14T07:34:30;18.00;75.50
32524;DHT22;18965;52.242;20.886;2023-06-14T07:36:57;18.10;75.50
32524;DHT22;18965;52.242;20.886;2023-06-14T07:39:23;18.20;75.20
32524;DHT22;18965;52.242;20.886;2023-06-14T07:41:49;18.20;75.00
32524;DHT22;18965;52.242;20.886;2023-06-14T07:44:15;18.20;74.90
32524;DHT22;18965;52.242;20.886;2023-06-14T07:46:41;18.30;75.10
32524;DHT22;18965;52.242;20.886;2023-06-14T07:49:07;18.40;74.90
32524;DHT22;18965;52.242;20.886;2023-06-14T07:51:33;18.40;74.70
32524;DHT22;18965;52.242;20.886;2023-06-14T07:53:59;18.60;74.50
32524;DHT22;18965;52.242;20.886;2023-06-14T07:56:27;18.70;74.40
32524;DHT22;18965;52.242;20.886;2023-06-14T07:58:53;18.80;73.80
32524;DHT22;18965;52.242;20.886;2023-06-14T08:01:18;19.00;73.70
32524;DHT22;18965;52.242;20.886;2023-06-14T08:03:45;19.00;73.30
32524;DHT22;18965;52.242;20.886;2023-06-14T08:06:11;19.00;72.80
32524;DHT22;18965;52.242;20.886;2023-06-14T08:08:37;19.00;72.50
32524;DHT22;18965;52.242;20.886;2023-06-14T08:11:03;19.10;72.50
32524;DHT22;18965;52.242;20.886;2023-06-14T08:13:28;19.10;72.40
32524;DHT22;18965;52.242;20.886;2023-06-14T08:15:54;19.10;72.50
32524;DHT22;18965;52.242;20.886;2023-06-14T08:18:22;19.20;72.30
32524;DHT22;18965;52.242;20.886;2023-06-14T08:20:48;19.20;72.10
32524;DHT22;18965;52.242;20.886;2023-06-14T08:23:14;19.30;72.20
32524;DHT22;18965;52.242;20.886;2023-06-14T08:25:39;19.30;71.90
32524;DHT22;18965;52.242;20.886;2023-06-14T08:28:05;19.30;71.50
32524;DHT22;18965;52.242;20.886;2023-06-14T08:30:31;19.40;71.00
32524;DHT22;18965;52.242;20.886;2023-06-14T08:32:57;19.50;71.40
32524;DHT22;18965;52.242;20.886;2023-06-14T08:35:23;19.50;71.00
32524;DHT22;18965;52.242;20.886;2023-06-14T08:37:49;19.60;70.60
32524;DHT22;18965;52.242;20.886;2023-06-14T08:40:19;19.70;70.20
32524;DHT22;18965;52.242;20.886;2023-06-14T08:42:53;19.70;70.10
32524;DHT22;18965;52.242;20.886;2023-06-14T08:45:24;19.70;69.90
32524;DHT22;18965;52.242;20.886;2023-06-14T08:47:50;19.90;69.70
32524;DHT22;18965;52.242;20.886;2023-06-14T08:50:25;19.90;69.30
32524;DHT22;18965;52.242;20.886;2023-06-14T08:53:00;20.00;69.20
32524;DHT22;18965;52.242;20.886;2023-06-14T08:55:28;20.10;69.00
32524;DHT22;18965;52.242;20.886;2023-06-14T08:57:55;20.20;69.10
32524;DHT22;18965;52.242;20.886;2023-06-14T09:00:23;20.30;68.70
32524;DHT22;18965;52.242;20.886;2023-06-14T09:02:50;20.40;68.50
32524;DHT22;18965;52.242;20.886;2023-06-14T09:05:22;20.40;67.70
32524;DHT22;18965;52.242;20.886;2023-06-14T09:07:49;20.50;67.80
32524;DHT22;18965;52.242;20.886;2023-06-14T09:10:16;20.60;67.80
32524;DHT22;18965;52.242;20.886;2023-06-14T09:12:42;20.80;67.60
32524;DHT22;18965;52.242;20.886;2023-06-14T09:15:09;20.90;67.50
32524;DHT22;18965;52.242;20.886;2023-06-14T09:17:35;21.00;66.70
32524;DHT22;18965;52.242;20.886;2023-06-14T09:20:03;21.10;66.20
32524;DHT22;18965;52.242;20.886;2023-06-14T09:22:32;21.10;65.80
32524;DHT22;18965;52.242;20.886;2023-06-14T09:24:58;21.10;65.30
32524;DHT22;18965;52.242;20.886;2023-06-14T09:27:26;21.20;65.50
32524;DHT22;18965;52.242;20.886;2023-06-14T09:29:54;21.30;64.80
32524;DHT22;18965;52.242;20.886;2023-06-14T09:32:21;21.30;65.10
32524;DHT22;18965;52.242;20.886;2023-06-14T09:34:47;21.40;64.10
32524;DHT22;18965;52.242;20.886;2023-06-14T09:37:13;21.40;64.10
32524;DHT22;18965;52.242;20.886;2023-06-14T09:39:51;21.50;64.00
32524;DHT22;18965;52.242;20.886;2023-06-14T09:42:18;21.50;64.00
32524;DHT22;18965;52.242;20.886;2023-06-14T09:44:48;21.50;63.80
32524;DHT22;18965;52.242;20.886;2023-06-14T09:47:15;21.40;62.90
32524;DHT22;18965;52.242;20.886;2023-06-14T09:49:42;21.40;64.00
32524;DHT22;18965;52.242;20.886;2023-06-14T09:52:17;21.30;63.20
32524;DHT22;18965;52.242;20.886;2023-06-14T09:54:45;21.20;63.00
32524;DHT22;18965;52.242;20.886;2023-06-14T09:57:16;21.00;63.30
32524;DHT22;18965;52.242;20.886;2023-06-14T09:59:44;20.90;63.50
32524;DHT22;18965;52.242;20.886;2023-06-14T10:02:34;20.90;63.90
32524;DHT22;18965;52.242;20.886;2023-06-14T10:05:08;20.90;64.60
32524;DHT22;18965;52.242;20.886;2023-06-14T10:07:48;20.80;63.70
32524;DHT22;18965;52.242;20.886;2023-06-14T10:10:14;20.80;63.80
32524;DHT22;18965;52.242;20.886;2023-06-14T10:12:40;21.00;63.90
32524;DHT22;18965;52.242;20.886;2023-06-14T10:15:09;21.10;63.00
32524;DHT22;18965;52.242;20.886;2023-06-14T10:23:01;21.20;62.00
32524;DHT22;18965;52.242;20.886;2023-06-14T10:25:31;21.30;61.50
32524;DHT22;18965;52.242;20.886;2023-06-14T10:41:28;21.60;59.50
32524;DHT22;18965;52.242;20.886;2023-06-14T10:46:39;21.60;58.50
32524;DHT22;18965;52.242;20.886;2023-06-14T10:49:05;21.70;59.20
32524;DHT22;18965;52.242;20.886;2023-06-14T10:51:39;21.60;58.00
32524;DHT22;18965;52.242;20.886;2023-06-14T10:54:15;21.70;58.10
32524;DHT22;18965;52.242;20.886;2023-06-14T10:56:51;21.90;58.40
32524;DHT22;18965;52.242;20.886;2023-06-14T10:59:18;21.80;56.30
32524;DHT22;18965;52.242;20.886;2023-06-14T11:04:47;21.90;56.70
32524;DHT22;18965;52.242;20.886;2023-06-14T11:07:51;22.00;58.00
32524;DHT22;18965;52.242;20.886;2023-06-14T11:13:12;21.90;55.40
32524;DHT22;18965;52.242;20.886;2023-06-14T11:15:39;21.90;56.20
32524;DHT22;18965;52.242;20.886;2023-06-14T11:18:08;22.00;56.90
32524;DHT22;18965;52.242;20.886;2023-06-14T11:20:36;22.10;56.40
32524;DHT22;18965;52.242;20.886;2023-06-14T11:23:03;22.00;55.90
32524;DHT22;18965;52.242;20.886;2023-06-14T11:25:29;22.00;55.30
32524;DHT22;18965;52.242;20.886;2023-06-14T11:27:55;21.90;55.60
32524;DHT22;18965;52.242;20.886;2023-06-14T11:30:22;21.90;55.80
32524;DHT22;18965;52.242;20.886;2023-06-14T11:32:52;21.90;55.80
32524;DHT22;18965;52.242;20.886;2023-06-14T11:35:19;21.90;55.70
32524;DHT22;18965;52.242;20.886;2023-06-14T11:37:49;21.90;55.70
32524;DHT22;18965;52.242;20.886;2023-06-14T11:40:17;21.70;55.50
32524;DHT22;18965;52.242;20.886;2023-06-14T11:42:43;21.70;55.60
32524;DHT22;18965;52.242;20.886;2023-06-14T11:45:10;21.60;55.90
32524;DHT22;18965;52.242;20.886;2023-06-14T11:47:37;21.60;56.00
32524;DHT22;18965;52.242;20.886;2023-06-14T11:50:04;21.50;55.80
32524;DHT22;18965;52.242;20.886;2023-06-14T11:52:31;21.40;56.30
32524;DHT22;18965;52.242;20.886;2023-06-14T11:54:57;21.40;56.50
32524;DHT22;18965;52.242;20.886;2023-06-14T11:57:24;21.30;55.70
32524;DHT22;18965;52.242;20.886;2023-06-14T11:59:51;21.20;55.40
32524;DHT22;18965;52.242;20.886;2023-06-14T12:02:18;21.20;55.20
32524;DHT22;18965;52.242;20.886;2023-06-14T12:04:46;21.20;54.40
32524;DHT22;18965;52.242;20.886;2023-06-14T12:07:15;21.40;55.00
32524;DHT22;18965;52.242;20.886;2023-06-14T12:09:42;21.60;55.30
32524;DHT22;18965;52.242;20.886;2023-06-14T12:12:10;21.70;54.80
32524;DHT22;18965;52.242;20.886;2023-06-14T12:14:36;21.70;53.80
32524;DHT22;18965;52.242;20.886;2023-06-14T12:17:08;21.80;53.80
32524;DHT22;18965;52.242;20.886;2023-06-14T12:19:41;21.70;53.90
32524;DHT22;18965;52.242;20.886;2023-06-14T12:22:09;21.70;54.00
32524;DHT22;18965;52.242;20.886;2023-06-14T12:24:35;21.70;53.60
32524;DHT22;18965;52.242;20.886;2023-06-14T12:27:01;21.50;52.50
32524;DHT22;18965;52.242;20.886;2023-06-14T12:29:31;21.50;53.10
32524;DHT22;18965;52.242;20.886;2023-06-14T12:31:57;21.40;53.40
32524;DHT22;18965;52.242;20.886;2023-06-14T12:34:23;21.40;53.50
32524;DHT22;18965;52.242;20.886;2023-06-14T12:36:53;21.20;53.60
32524;DHT22;18965;52.242;20.886;2023-06-14T12:39:20;21.20;54.00
32524;DHT22;18965;52.242;20.886;2023-06-14T12:41:46;21.10;53.80
32524;DHT22;18965;52.242;20.886;2023-06-14T12:44:13;20.90;54.00
32524;DHT22;18965;52.242;20.886;2023-06-14T12:46:39;20.90;54.20
32524;DHT22;18965;52.242;20.886;2023-06-14T12:49:07;20.80;54.10
32524;DHT22;18965;52.242;20.886;2023-06-14T12:51:36;20.90;54.60
32524;DHT22;18965;52.242;20.886;2023-06-14T12:54:02;20.80;54.70
32524;DHT22;18965;52.242;20.886;2023-06-14T12:56:28;20.80;54.10
32524;DHT22;18965;52.242;20.886;2023-06-14T12:58:53;20.80;54.30
32524;DHT22;18965;52.242;20.886;2023-06-14T13:01:19;20.90;54.80
32524;DHT22;18965;52.242;20.886;2023-06-14T13:03:48;20.90;54.70
32524;DHT22;18965;52.242;20.886;2023-06-14T13:06:15;21.00;55.10
32524;DHT22;18965;52.242;20.886;2023-06-14T13:08:40;21.00;55.50
32524;DHT22;18965;52.242;20.886;2023-06-14T13:11:06;21.00;54.10
32524;DHT22;18965;52.242;20.886;2023-06-14T13:13:32;20.90;53.70
32524;DHT22;18965;52.242;20.886;2023-06-14T13:15:57;21.00;53.70
32524;DHT22;18965;52.242;20.886;2023-06-14T13:18:23;21.00;53.70
32524;DHT22;18965;52.242;20.886;2023-06-14T13:20:56;21.00;53.80
32524;DHT22;18965;52.242;20.886;2023-06-14T13:23:22;21.00;53.00
32524;DHT22;18965;52.242;20.886;2023-06-14T13:25:48;20.90;53.40
32524;DHT22;18965;52.242;20.886;2023-06-14T13:28:16;20.90;53.50
32524;DHT22;18965;52.242;20.886;2023-06-14T13:30:42;20.80;53.60
32524;DHT22;18965;52.242;20.886;2023-06-14T13:33:08;20.70;53.30
32524;DHT22;18965;52.242;20.886;2023-06-14T13:35:33;20.60;53.40
32524;DHT22;18965;52.242;20.886;2023-06-14T13:38:00;20.60;53.80
32524;DHT22;18965;52.242;20.886;2023-06-14T13:40:26;20.50;54.20
32524;DHT22;18965;52.242;20.886;2023-06-14T13:42:52;20.60;54.70
32524;DHT22;18965;52.242;20.886;2023-06-14T13:45:17;20.60;54.60
32524;DHT22;18965;52.242;20.886;2023-06-14T13:47:43;20.60;54.90
32524;DHT22;18965;52.242;20.886;2023-06-14T13:50:09;20.60;54.90
32524;DHT22;18965;52.242;20.886;2023-06-14T13:52:38;20.60;55.00
32524;DHT22;18965;52.242;20.886;2023-06-14T13:55:04;20.60;54.90
32524;DHT22;18965;52.242;20.886;2023-06-14T13:57:30;20.60;55.00
32524;DHT22;18965;52.242;20.886;2023-06-14T13:59:56;20.60;55.20
32524;DHT22;18965;52.242;20.886;2023-06-14T14:02:27;20.60;55.20
32524;DHT22;18965;52.242;20.886;2023-06-14T14:04:54;20.60;55.60
32524;DHT22;18965;52.242;20.886;2023-06-14T14:07:20;20.60;55.60
32524;DHT22;18965;52.242;20.886;2023-06-14T14:09:47;20.70;55.80
32524;DHT22;18965;52.242;20.886;2023-06-14T14:12:15;20.70;55.60
32524;DHT22;18965;52.242;20.886;2023-06-14T14:14:41;20.80;55.80
32524;DHT22;18965;52.242;20.886;2023-06-14T14:17:07;20.80;55.50
32524;DHT22;18965;52.242;20.886;2023-06-14T14:19:33;20.80;55.20
32524;DHT22;18965;52.242;20.886;2023-06-14T14:21:59;20.80;55.10
32524;DHT22;18965;52.242;20.886;2023-06-14T14:24:26;20.80;55.00
32524;DHT22;18965;52.242;20.886;2023-06-14T14:26:52;20.70;54.90
32524;DHT22;18965;52.242;20.886;2023-06-14T14:29:19;20.60;55.00
32524;DHT22;18965;52.242;20.886;2023-06-14T14:31:45;20.60;55.30
32524;DHT22;18965;52.242;20.886;2023-06-14T14:34:11;20.70;55.60
32524;DHT22;18965;52.242;20.886;2023-06-14T14:36:37;20.80;55.80
32524;DHT22;18965;52.242;20.886;2023-06-14T14:39:06;20.90;55.80
32524;DHT22;18965;52.242;20.886;2023-06-14T14:41:32;21.00;55.40
32524;DHT22;18965;52.242;20.886;2023-06-14T14:43:58;21.10;55.20
32524;DHT22;18965;52.242;20.886;2023-06-14T14:46:27;21.20;55.00
32524;DHT22;18965;52.242;20.886;2023-06-14T14:48:52;21.20;54.70
32524;DHT22;18965;52.242;20.886;2023-06-14T14:51:18;21.30;55.20
32524;DHT22;18965;52.242;20.886;2023-06-14T14:53:44;21.30;55.10
32524;DHT22;18965;52.242;20.886;2023-06-14T14:56:10;21.40;55.10
32524;DHT22;18965;52.242;20.886;2023-06-14T14:58:37;21.40;54.90
32524;DHT22;18965;52.242;20.886;2023-06-14T15:01:03;21.40;54.80
32524;DHT22;18965;52.242;20.886;2023-06-14T15:03:31;21.20;54.50
32524;DHT22;18965;52.242;20.886;2023-06-14T15:05:57;21.20;54.90
32524;DHT22;18965;52.242;20.886;2023-06-14T15:08:22;21.20;55.10
32524;DHT22;18965;52.242;20.886;2023-06-14T15:10:48;21.20;55.30
32524;DHT22;18965;52.242;20.886;2023-06-14T15:13:14;21.20;55.50
32524;DHT22;18965;52.242;20.886;2023-06-14T15:15:40;21.10;55.50
32524;DHT22;18965;52.242;20.886;2023-06-14T15:18:05;21.20;55.80
32524;DHT22;18965;52.242;20.886;2023-06-14T15:20:31;21.20;56.10
32524;DHT22;18965;52.242;20.886;2023-06-14T15:22:57;21.20;56.20
32524;DHT22;18965;52.242;20.886;2023-06-14T15:25:27;21.20;56.20
32524;DHT22;18965;52.242;20.886;2023-06-14T15:27:52;21.20;56.30
32524;DHT22;18965;52.242;20.886;2023-06-14T15:30:19;21.20;56.40
32524;DHT22;18965;52.242;20.886;2023-06-14T15:32:45;21.10;56.30
32524;DHT22;18965;52.242;20.886;2023-06-14T15:35:11;21.10;56.40
32524;DHT22;18965;52.242;20.886;2023-06-14T15:37:37;21.00;56.60
32524;DHT22;18965;52.242;20.886;2023-06-14T15:40:04;20.90;56.50
32524;DHT22;18965;52.242;20.886;2023-06-14T15:42:30;20.80;56.40
32524;DHT22;18965;52.242;20.886;2023-06-14T15:44:56;20.60;56.30
32524;DHT22;18965;52.242;20.886;2023-06-14T15:47:22;20.60;56.70
32524;DHT22;18965;52.242;20.886;2023-06-14T15:49:47;20.50;57.10